Altoona, Kansas
Current Conditions -  °F | °C
As of 8:52 AM on Wednesday 26 Nov 2014 (Local Time) from KCNU Reporting Station
Clear Clear  
Wind Chill: 36°   Ceiling: Unl
Heat Index: 43°   Visibility: 10mi
Dew Point: 30°   Wind: 13mph
Humidity: 60%   Direction: 300°WNW
Pressure: 30.04"   Gusts: NA
Location:  37.52°N, 95.66°W
Report Text: KCNU 261452Z AUTO 30011KT 10SM CLR 06/M01 A3004 RMK AO2 SLP175 T00611011 53017
Loading
Personal Weather Stations






























Interactive Weather Map New forecast layout! Learn more

10-Day Weather Forecast

Advertisements
Track Severe Weather on mobile